Time;durP1;ratioP1;P1;durP2;ratioP2;P2;SDS_P1;SDS_P2;PMS_P1;PMS_P2;Temp;Humidity;BMP_temperature;BMP_pressure;BME280_temperature;BME280_humidity;BME280_pressure;Samples;Min_cycle;Max_cycle;Signal;HPM_P1;HPM_P2
2023/07/14 00:00:25;;;;;;;3.72;1.65;;;15.80;99.90;;;;;;5137899;27;20091;-46
2023/07/14 00:02:53;;;;;;;5.13;1.67;;;15.80;99.90;;;;;;5152751;27;20026;-47
2023/07/14 00:05:21;;;;;;;5.57;1.63;;;15.80;99.90;;;;;;5153032;27;20027;-44
2023/07/14 00:07:49;;;;;;;5.13;1.98;;;15.80;99.90;;;;;;5153060;27;20018;-55
2023/07/14 00:10:21;;;;;;;7.68;2.70;;;15.80;99.90;;;;;;5149992;27;20055;-45
2023/07/14 00:12:48;;;;;;;5.75;1.80;;;15.80;99.90;;;;;;5151837;27;20086;-41
2023/07/14 00:15:14;;;;;;;6.00;1.65;;;15.80;99.90;;;;;;5152606;27;20035;-40
2023/07/14 00:17:40;;;;;;;7.57;1.70;;;15.80;99.90;;;;;;5152516;27;20018;-50
2023/07/14 00:20:23;;;;;;;4.57;1.27;;;15.80;99.90;;;;;;5152633;27;20023;-46
2023/07/14 00:22:50;;;;;;;3.45;1.70;;;15.70;99.90;;;;;;5152503;27;20062;-41
2023/07/14 00:25:16;;;;;;;2.17;1.25;;;15.70;99.90;;;;;;5140395;27;20039;-52
2023/07/14 00:27:42;;;;;;;4.72;1.75;;;15.70;99.90;;;;;;5146280;27;20023;-43
2023/07/14 00:30:22;;;;;;;7.00;2.58;;;15.70;99.90;;;;;;5152427;27;20364;-48
2023/07/14 00:32:49;;;;;;;4.07;1.40;;;15.70;99.90;;;;;;5152523;27;20027;-40
2023/07/14 00:35:20;;;;;;;3.83;1.67;;;15.60;99.90;;;;;;5152539;27;20418;-47
2023/07/14 00:37:47;;;;;;;6.40;1.90;;;15.60;99.90;;;;;;5152470;27;20399;-41
2023/07/14 00:40:17;;;;;;;2.50;1.20;;;15.60;99.90;;;;;;5149315;27;20023;-44
2023/07/14 00:42:43;;;;;;;5.10;1.83;;;15.60;99.90;;;;;;5143715;27;20027;-47
2023/07/14 00:45:15;;;;;;;5.68;2.30;;;15.60;99.90;;;;;;5152178;27;20041;-40
2023/07/14 00:47:42;;;;;;;5.43;1.92;;;15.60;99.90;;;;;;5152205;27;20475;-46
2023/07/14 00:50:18;;;;;;;4.07;1.90;;;15.50;99.90;;;;;;5149505;27;20050;-51
2023/07/14 00:52:47;;;;;;;4.28;1.42;;;15.60;99.90;;;;;;5141908;27;20514;-44
2023/07/14 00:55:37;;;;;;;4.90;1.80;;;15.50;99.90;;;;;;5151753;27;20074;-46
2023/07/14 00:58:15;;;;;;;6.75;1.95;;;15.50;99.90;;;;;;5141387;27;20427;-45
2023/07/14 01:01:11;;;;;;;6.72;1.80;;;15.60;99.90;;;;;;5152061;27;20691;-47
2023/07/14 01:03:41;;;;;;;4.65;1.83;;;15.50;99.90;;;;;;5151916;27;20498;-46
2023/07/14 01:06:27;;;;;;;5.38;1.50;;;15.50;99.90;;;;;;5152065;27;20495;-47
2023/07/14 01:09:08;;;;;;;7.28;1.70;;;15.50;99.90;;;;;;5141065;27;20063;-48
2023/07/14 01:11:55;;;;;;;7.57;1.80;;;15.50;99.90;;;;;;5145538;27;20019;-52
2023/07/14 01:14:30;;;;;;;4.60;1.58;;;15.50;99.90;;;;;;5156151;27;20511;-47
2023/07/14 01:16:58;;;;;;;5.43;1.73;;;15.50;99.90;;;;;;5156382;27;20050;-46
2023/07/14 01:19:39;;;;;;;6.32;2.00;;;15.50;99.90;;;;;;5156169;27;20019;-41
2023/07/14 01:22:29;;;;;;;7.03;2.05;;;15.50;99.90;;;;;;5156383;27;20029;-49
2023/07/14 01:24:57;;;;;;;;;;;15.50;99.90;;;;;;5128209;27;20019;-41
2023/07/14 01:27:24;;;;;;;8.35;1.75;;;15.50;99.90;;;;;;5147150;27;20259;-45
2023/07/14 01:29:52;;;;;;;6.72;1.95;;;15.50;99.90;;;;;;5156033;27;20050;-53
2023/07/14 01:32:19;;;;;;;3.92;1.52;;;15.50;99.90;;;;;;5155914;27;20027;-44
2023/07/14 01:34:45;;;;;;;5.43;1.73;;;15.50;99.90;;;;;;5155789;27;20130;-44
2023/07/14 01:37:14;;;;;;;3.88;1.67;;;15.40;99.90;;;;;;5155903;27;20367;-45
2023/07/14 01:39:40;;;;;;;6.03;1.50;;;15.50;99.90;;;;;;5155809;27;20019;-46
2023/07/14 01:42:06;;;;;;;3.03;1.45;;;15.50;99.90;;;;;;5145372;27;20030;-44
2023/07/14 01:44:33;;;;;;;5.72;2.03;;;15.40;99.90;;;;;;5155934;27;20026;-45
2023/07/14 01:47:00;;;;;;;2.35;1.45;;;15.40;99.90;;;;;;5155493;27;20034;-50
2023/07/14 01:49:37;;;;;;;6.97;2.15;;;15.40;99.90;;;;;;5155042;27;20106;-42
2023/07/14 01:52:07;;;;;;;4.03;1.90;;;15.40;99.90;;;;;;5136392;27;20019;-49
2023/07/14 01:54:50;;;;;;;5.47;1.63;;;15.40;99.90;;;;;;5134479;27;20043;-44
2023/07/14 01:57:19;;;;;;;4.53;2.25;;;15.40;99.90;;;;;;5134312;27;20019;-42
2023/07/14 01:59:50;;;;;;;4.55;1.80;;;15.40;99.90;;;;;;5134610;27;20448;-42
2023/07/14 02:02:40;;;;;;;6.97;2.10;;;15.40;99.90;;;;;;5134621;27;20101;-40
2023/07/14 02:05:20;;;;;;;3.47;1.55;;;15.40;99.90;;;;;;5134094;27;20144;-41
2023/07/14 02:07:46;;;;;;;5.53;1.95;;;15.40;99.90;;;;;;5134352;27;20023;-41
2023/07/14 02:10:19;;;;;;;4.07;1.83;;;15.40;99.90;;;;;;5134221;27;20102;-41
2023/07/14 02:12:47;;;;;;;6.28;1.75;;;15.40;99.90;;;;;;5134547;27;20031;-40
2023/07/14 02:15:23;;;;;;;2.67;1.25;;;15.40;99.90;;;;;;5134174;27;20031;-40
2023/07/14 02:17:50;;;;;;;3.40;1.60;;;15.40;99.90;;;;;;5134292;27;20073;-40
2023/07/14 02:20:20;;;;;;;3.13;1.60;;;15.40;99.90;;;;;;5133995;27;20046;-40
2023/07/14 02:22:48;;;;;;;4.25;1.90;;;15.40;99.90;;;;;;5134075;27;20471;-40
2023/07/14 02:25:16;;;;;;;3.20;1.48;;;15.40;99.90;;;;;;5132874;27;20050;-40
2023/07/14 02:27:42;;;;;;;4.27;1.97;;;15.40;99.90;;;;;;5147248;27;20382;-40
2023/07/14 02:30:22;;;;;;;4.45;1.70;;;15.40;99.90;;;;;;5154857;27;20263;-41
2023/07/14 02:32:54;;;;;;;5.10;1.73;;;15.40;99.90;;;;;;5154668;27;20037;-40
2023/07/14 02:35:33;;;;;;;6.68;2.63;;;15.30;99.90;;;;;;5154732;27;20066;-41
2023/07/14 02:38:03;;;;;;;5.75;1.75;;;15.30;99.90;;;;;;5145393;27;20348;-39
2023/07/14 02:40:41;;;;;;;2.38;1.20;;;15.30;99.90;;;;;;5153129;27;20482;-39
2023/07/14 02:43:13;;;;;;;4.57;1.30;;;15.30;99.90;;;;;;5153112;27;20023;-39
2023/07/14 02:45:54;;;;;;;2.35;1.25;;;15.30;99.90;;;;;;5154393;27;20675;-46
2023/07/14 02:48:37;;;;;;;4.20;1.85;;;15.30;99.90;;;;;;5154318;27;20129;-41
2023/07/14 02:51:03;;;;;;;7.20;1.92;;;15.30;99.90;;;;;;5139219;27;20586;-41
2023/07/14 02:53:28;;;;;;;7.85;2.17;;;15.30;99.90;;;;;;5149841;27;20039;-41
2023/07/14 02:55:54;;;;;;;8.40;1.85;;;15.40;99.90;;;;;;5154041;27;20046;-41
2023/07/14 02:58:20;;;;;;;5.45;1.60;;;15.40;99.90;;;;;;5154105;27;20122;-42
2023/07/14 03:00:46;;;;;;;6.20;2.15;;;15.50;99.90;;;;;;5154312;27;20025;-41
2023/07/14 03:03:11;;;;;;;8.98;2.05;;;15.50;99.90;;;;;;5148031;27;20460;-49
2023/07/14 03:05:37;;;;;;;6.32;1.92;;;15.60;99.90;;;;;;5154061;27;20022;-48
2023/07/14 03:08:07;;;;;;;5.25;2.05;;;15.60;99.90;;;;;;5154056;27;20022;-44
2023/07/14 03:10:33;;;;;;;6.20;1.95;;;15.60;99.90;;;;;;5153991;27;20019;-43
2023/07/14 03:12:59;;;;;;;5.22;1.85;;;15.60;99.90;;;;;;5153228;27;20014;-43
2023/07/14 03:15:25;;;;;;;7.78;2.10;;;15.60;99.90;;;;;;5146907;27;20494;-45
2023/07/14 03:17:51;;;;;;;9.98;2.22;;;15.70;99.90;;;;;;5154016;27;20010;-50
2023/07/14 03:20:17;;;;;;;4.75;1.80;;;15.70;99.90;;;;;;5153830;27;20026;-46
2023/07/14 03:22:43;;;;;;;8.32;2.58;;;15.70;99.90;;;;;;5140757;27;20472;-46
2023/07/14 03:25:09;;;;;;;5.50;2.20;;;15.70;99.90;;;;;;5132757;27;20134;-40
2023/07/14 03:27:35;;;;;;;6.10;2.22;;;15.70;99.90;;;;;;5131298;27;20489;-46
2023/07/14 03:30:01;;;;;;;8.63;2.30;;;15.70;99.90;;;;;;5132930;27;20110;-47
2023/07/14 03:32:27;;;;;;;5.93;2.10;;;15.70;99.90;;;;;;5132784;27;20015;-41
2023/07/14 03:34:53;;;;;;;4.55;1.95;;;15.80;99.90;;;;;;5132470;27;20390;-49
2023/07/14 03:37:18;;;;;;;6.75;2.10;;;15.80;99.90;;;;;;5132757;27;20027;-53
2023/07/14 03:39:44;;;;;;;6.28;2.08;;;15.80;99.90;;;;;;5132406;27;20023;-45
2023/07/14 03:42:10;;;;;;;6.15;2.45;;;15.80;99.90;;;;;;5132495;27;20438;-44
2023/07/14 03:44:35;;;;;;;7.35;2.35;;;15.70;99.90;;;;;;5132486;27;20023;-42
2023/07/14 03:47:03;;;;;;;10.00;2.20;;;15.80;99.90;;;;;;5132615;27;20026;-44
2023/07/14 03:49:29;;;;;;;4.35;1.98;;;15.80;99.90;;;;;;5132512;27;20047;-48
2023/07/14 03:51:55;;;;;;;6.32;2.00;;;15.80;99.90;;;;;;5116520;27;20023;-51
2023/07/14 03:54:21;;;;;;;7.32;1.90;;;15.80;99.90;;;;;;5130504;27;20043;-42
2023/07/14 03:56:47;;;;;;;6.60;2.13;;;15.80;99.90;;;;;;5131539;27;20100;-40
2023/07/14 03:59:16;;;;;;;6.35;2.42;;;15.80;99.90;;;;;;5132373;27;20027;-42
2023/07/14 04:01:41;;;;;;;6.25;2.03;;;15.80;99.90;;;;;;5132293;27;20087;-46
2023/07/14 04:04:07;;;;;;;5.20;1.80;;;15.80;99.90;;;;;;5122213;27;20620;-42
2023/07/14 04:06:33;;;;;;;6.38;1.73;;;15.70;99.90;;;;;;5127639;27;20413;-40
2023/07/14 04:09:00;;;;;;;7.53;2.40;;;15.70;99.90;;;;;;5124648;27;20121;-44
2023/07/14 04:11:26;;;;;;;5.75;1.77;;;15.70;99.90;;;;;;5125939;27;20027;-46
2023/07/14 04:13:52;;;;;;;4.82;2.28;;;15.80;99.90;;;;;;5132291;27;20027;-42
2023/07/14 04:16:18;;;;;;;4.57;2.10;;;15.80;99.90;;;;;;5134366;27;20027;-50
2023/07/14 04:18:44;;;;;;;3.85;1.92;;;15.80;99.90;;;;;;5131564;27;20023;-40
2023/07/14 04:21:12;;;;;;;9.48;2.10;;;15.80;99.90;;;;;;5131808;27;20033;-46
2023/07/14 04:23:39;;;;;;;7.70;1.85;;;15.80;99.90;;;;;;5131731;27;20023;-52
2023/07/14 04:26:07;;;;;;;10.15;1.83;;;15.80;99.90;;;;;;5131460;27;20376;-46
2023/07/14 04:28:35;;;;;;;4.57;2.03;;;15.80;99.90;;;;;;5131531;27;20364;-41
2023/07/14 04:31:01;;;;;;;6.20;2.05;;;15.80;99.90;;;;;;5131543;27;20497;-41
2023/07/14 04:33:27;;;;;;;5.50;1.95;;;15.90;99.90;;;;;;5131435;27;20023;-43
2023/07/14 04:35:54;;;;;;;3.58;1.73;;;15.90;99.90;;;;;;5131676;27;20027;-43
2023/07/14 04:38:21;;;;;;;5.25;2.10;;;15.80;99.90;;;;;;5121002;27;20023;-44
2023/07/14 04:40:47;;;;;;;4.32;1.80;;;15.90;99.90;;;;;;5127829;27;20054;-40
2023/07/14 04:43:14;;;;;;;6.05;1.55;;;15.90;99.90;;;;;;5131568;27;20042;-44
2023/07/14 04:45:41;;;;;;;8.55;2.03;;;15.90;99.90;;;;;;5131464;27;20031;-40
2023/07/14 04:48:08;;;;;;;5.80;2.13;;;15.90;99.90;;;;;;5122627;27;20023;-43
2023/07/14 04:50:35;;;;;;;3.95;1.60;;;15.90;99.90;;;;;;5131445;27;20511;-41
2023/07/14 04:53:05;;;;;;;4.60;1.88;;;15.90;99.90;;;;;;5131447;27;20015;-41
2023/07/14 04:55:31;;;;;;;7.47;1.85;;;15.90;99.90;;;;;;5131063;27;20084;-47
2023/07/14 04:57:57;;;;;;;5.90;1.60;;;16.00;99.90;;;;;;5131327;27;20091;-42
2023/07/14 05:00:23;;;;;;;6.07;1.50;;;16.00;99.90;;;;;;5131400;27;20669;-49
2023/07/14 05:02:48;;;;;;;3.80;2.10;;;16.00;99.90;;;;;;5129839;27;20016;-42
2023/07/14 05:05:17;;;;;;;5.30;1.75;;;16.00;99.90;;;;;;5131579;27;20023;-49
2023/07/14 05:07:43;;;;;;;5.15;1.73;;;16.10;99.90;;;;;;5131248;27;20549;-50
2023/07/14 05:10:10;;;;;;;3.17;1.52;;;16.10;99.90;;;;;;5131050;27;20027;-48
2023/07/14 05:12:36;;;;;;;3.83;1.92;;;16.10;99.90;;;;;;5131401;27;20035;-45
2023/07/14 05:15:06;;;;;;;5.40;1.40;;;16.20;99.90;;;;;;5126410;27;20540;-45
2023/07/14 05:17:35;;;;;;;3.72;1.50;;;16.20;99.90;;;;;;5117230;27;20028;-41
2023/07/14 05:20:01;;;;;;;5.82;1.50;;;16.30;99.90;;;;;;5128707;27;20019;-44
2023/07/14 05:22:26;;;;;;;5.03;1.60;;;16.30;99.90;;;;;;5131201;27;20376;-44
2023/07/14 05:24:52;;;;;;;7.45;1.58;;;16.30;99.90;;;;;;5131175;27;20019;-41
2023/07/14 05:27:17;;;;;;;7.07;1.77;;;16.40;99.90;;;;;;5127991;27;20035;-43
2023/07/14 05:29:46;;;;;;;6.25;1.73;;;16.40;99.90;;;;;;5124228;27;20102;-42
2023/07/14 05:32:11;;;;;;;4.10;1.67;;;16.40;99.90;;;;;;5130879;27;20019;-49
2023/07/14 05:34:37;;;;;;;8.18;1.80;;;16.50;99.90;;;;;;5131083;27;20031;-49
2023/07/14 05:37:03;;;;;;;3.97;2.03;;;16.50;99.90;;;;;;5131198;27;20027;-43
2023/07/14 05:39:29;;;;;;;2.97;1.00;;;16.50;99.90;;;;;;5130937;27;20457;-46
2023/07/14 05:41:58;;;;;;;5.72;1.52;;;16.50;99.90;;;;;;5127098;27;20065;-46
2023/07/14 05:44:24;;;;;;;5.75;1.33;;;16.50;99.90;;;;;;5129076;27;20020;-54
2023/07/14 05:46:50;;;;;;;5.05;1.67;;;16.50;99.90;;;;;;5130919;27;20027;-43
2023/07/14 05:49:16;;;;;;;4.00;1.67;;;16.50;99.90;;;;;;5130829;27;20141;-42
2023/07/14 05:51:42;;;;;;;5.30;1.70;;;16.50;99.90;;;;;;5130867;27;20467;-47
2023/07/14 05:54:08;;;;;;;2.97;1.45;;;16.50;99.90;;;;;;5130407;27;20453;-47
2023/07/14 05:56:34;;;;;;;4.93;1.50;;;16.50;99.90;;;;;;5130808;27;20107;-40
2023/07/14 05:59:00;;;;;;;7.65;1.83;;;16.50;99.90;;;;;;5128829;27;20030;-40
2023/07/14 06:01:25;;;;;;;2.63;1.42;;;16.50;99.90;;;;;;5133138;27;20023;-41
2023/07/14 06:03:51;;;;;;;3.95;1.50;;;16.60;99.90;;;;;;5134605;27;20072;-40
2023/07/14 06:06:17;;;;;;;4.60;1.70;;;16.60;99.90;;;;;;5134241;27;20027;-44
2023/07/14 06:08:42;;;;;;;5.68;1.35;;;16.50;99.90;;;;;;5134513;27;20028;-41
2023/07/14 06:11:08;;;;;;;3.10;1.20;;;16.60;99.90;;;;;;5135015;27;20102;-40
2023/07/14 06:13:34;;;;;;;5.38;1.88;;;16.70;99.90;;;;;;5134099;27;20048;-40
2023/07/14 06:16:01;;;;;;;4.72;1.52;;;16.60;99.90;;;;;;5134286;27;20433;-39
2023/07/14 06:18:27;;;;;;;4.25;1.35;;;16.60;99.90;;;;;;5134015;27;20403;-43
2023/07/14 06:20:53;;;;;;;3.80;1.70;;;16.60;99.90;;;;;;5134267;27;20499;-41
2023/07/14 06:23:19;;;;;;;2.88;1.58;;;16.70;99.90;;;;;;5133904;27;20027;-40
2023/07/14 06:25:45;;;;;;;4.63;1.58;;;16.70;99.90;;;;;;5134095;27;20030;-39
2023/07/14 06:28:10;;;;;;;3.92;1.52;;;16.70;99.90;;;;;;5138606;27;20379;-41
2023/07/14 06:30:36;;;;;;;5.13;1.60;;;16.80;99.90;;;;;;5144483;27;20487;-49
2023/07/14 06:33:02;;;;;;;5.45;1.80;;;16.70;99.90;;;;;;5143841;27;20023;-39
2023/07/14 06:35:27;;;;;;;6.85;1.70;;;16.70;99.90;;;;;;5139654;27;20045;-41
2023/07/14 06:37:57;;;;;;;3.35;1.42;;;16.80;99.90;;;;;;5135178;27;20011;-47
2023/07/14 06:40:23;;;;;;;4.80;1.80;;;16.80;99.90;;;;;;5133297;27;20115;-41
2023/07/14 06:42:49;;;;;;;2.00;1.30;;;16.90;99.90;;;;;;5136757;27;20045;-40
2023/07/14 06:45:15;;;;;;;3.65;1.48;;;17.00;99.90;;;;;;5141940;27;20083;-40
2023/07/14 06:47:40;;;;;;;4.53;1.58;;;17.10;99.90;;;;;;5135336;27;20016;-48
2023/07/14 06:50:07;;;;;;;6.75;1.58;;;17.10;99.90;;;;;;5134962;27;20057;-46
2023/07/14 06:52:36;;;;;;;3.67;1.60;;;17.30;99.90;;;;;;5139226;27;20068;-40
2023/07/14 06:55:01;;;;;;;3.08;1.55;;;17.30;99.90;;;;;;5137454;27;20522;-40
2023/07/14 06:57:27;;;;;;;4.18;1.52;;;17.50;99.90;;;;;;5140992;27;20019;-43
2023/07/14 06:59:53;;;;;;;5.30;1.60;;;17.50;99.90;;;;;;5137352;27;20019;-47
2023/07/14 07:02:18;;;;;;;6.32;1.40;;;17.70;99.90;;;;;;5141261;27;20072;-41
2023/07/14 07:04:44;;;;;;;6.72;1.45;;;17.60;99.90;;;;;;5137184;27;20019;-40
2023/07/14 07:07:09;;;;;;;5.07;1.77;;;17.70;99.90;;;;;;5139273;27;20024;-44
2023/07/14 07:09:35;;;;;;;3.90;1.23;;;17.50;99.90;;;;;;5143105;27;20089;-42
2023/07/14 07:12:03;;;;;;;4.22;1.50;;;17.50;99.90;;;;;;5136562;27;20028;-44
2023/07/14 07:14:28;;;;;;;4.78;1.45;;;17.50;99.90;;;;;;5143536;27;20431;-40
2023/07/14 07:16:54;;;;;;;2.97;1.60;;;17.60;99.90;;;;;;5128056;27;20054;-41
2023/07/14 07:19:20;;;;;;;3.83;1.48;;;17.60;99.90;;;;;;5137412;27;20027;-40
2023/07/14 07:21:45;;;;;;;3.33;1.50;;;17.70;99.90;;;;;;5131488;27;20027;-45
2023/07/14 07:24:11;;;;;;;6.28;1.70;;;17.70;99.90;;;;;;5132744;27;20018;-42
2023/07/14 07:26:37;;;;;;;4.18;1.10;;;17.80;99.90;;;;;;5133859;27;20019;-41
2023/07/14 07:29:03;;;;;;;3.83;1.60;;;17.90;99.90;;;;;;5137544;27;20026;-41
2023/07/14 07:31:28;;;;;;;4.18;1.80;;;18.00;99.90;;;;;;5143082;27;20420;-44
2023/07/14 07:33:54;;;;;;;2.90;1.10;;;17.90;99.90;;;;;;5136965;27;20072;-48
2023/07/14 07:36:22;;;;;;;5.35;1.67;;;18.00;99.90;;;;;;5132582;27;20034;-44
2023/07/14 07:38:50;;;;;;;3.75;1.40;;;18.00;99.90;;;;;;5129861;27;20027;-43
2023/07/14 07:41:18;;;;;;;4.45;1.52;;;18.00;99.90;;;;;;5129166;27;20026;-45
2023/07/14 07:43:44;;;;;;;2.80;1.23;;;17.90;99.90;;;;;;5125107;27;20023;-46
2023/07/14 07:46:10;;;;;;;1.92;1.13;;;17.80;99.90;;;;;;5132532;27;20042;-41
2023/07/14 07:48:36;;;;;;;6.65;1.60;;;17.80;99.90;;;;;;5132559;27;20031;-45
2023/07/14 07:51:04;;;;;;;5.05;1.83;;;17.80;99.90;;;;;;5132416;27;20018;-44
2023/07/14 07:53:30;;;;;;;6.63;2.00;;;17.90;99.90;;;;;;5132180;27;20163;-41
2023/07/14 07:55:58;;;;;;;4.60;1.30;;;17.90;99.90;;;;;;5132249;27;20039;-42
2023/07/14 07:58:24;;;;;;;4.53;1.50;;;17.80;99.90;;;;;;5122030;27;20023;-41
2023/07/14 08:01:02;;;;;;;3.45;1.35;;;17.90;99.90;;;;;;5143535;27;20077;-42
2023/07/14 08:03:28;;;;;;;4.45;1.63;;;17.90;99.90;;;;;;5125271;27;20015;-53
2023/07/14 08:06:05;;;;;;;5.28;1.33;;;17.80;99.90;;;;;;5131942;27;20022;-41
2023/07/14 08:08:31;;;;;;;4.45;1.90;;;17.70;99.90;;;;;;5136159;27;20030;-40
2023/07/14 08:10:57;;;;;;;3.25;1.40;;;17.70;99.90;;;;;;5129575;27;20076;-49
2023/07/14 08:13:25;;;;;;;3.28;1.25;;;17.60;99.90;;;;;;5131141;27;20431;-47
2023/07/14 08:15:54;;;;;;;3.20;1.52;;;17.50;99.90;;;;;;5130950;27;20035;-47
2023/07/14 08:18:21;;;;;;;3.20;1.40;;;17.50;99.90;;;;;;5131824;27;20015;-40
2023/07/14 08:20:49;;;;;;;6.60;1.77;;;17.40;99.90;;;;;;5131740;27;20066;-50
2023/07/14 08:23:15;;;;;;;5.80;1.85;;;17.30;99.90;;;;;;5120809;27;20106;-44
2023/07/14 08:25:41;;;;;;;3.38;1.52;;;17.40;99.90;;;;;;5128045;27;20058;-51
2023/07/14 08:28:07;;;;;;;4.78;1.83;;;17.50;99.90;;;;;;5131583;27;20452;-49
2023/07/14 08:30:33;;;;;;;4.00;1.83;;;17.60;99.90;;;;;;5131002;27;20437;-43
2023/07/14 08:32:58;;;;;;;5.28;1.92;;;17.60;99.90;;;;;;5131620;27;20027;-43
2023/07/14 08:35:24;;;;;;;5.30;1.55;;;17.60;99.90;;;;;;5130092;27;20056;-50
2023/07/14 08:37:50;;;;;;;8.02;2.05;;;17.60;99.90;;;;;;5131442;27;20421;-46
2023/07/14 08:40:24;;;;;;;3.85;1.52;;;17.70;99.90;;;;;;5131013;27;20035;-50
2023/07/14 08:43:11;;;;;;;3.17;1.40;;;17.70;99.90;;;;;;5129133;27;20105;-51
2023/07/14 08:45:41;;;;;;;2.95;1.33;;;17.70;99.90;;;;;;5122202;27;20034;-50
2023/07/14 08:48:31;;;;;;;2.67;1.35;;;17.70;99.90;;;;;;5131494;27;20075;-51
2023/07/14 08:51:06;;;;;;;6.43;1.67;;;17.70;99.90;;;;;;5130497;27;20098;-44
2023/07/14 08:53:33;;;;;;;8.23;1.83;;;17.70;99.90;;;;;;5134459;27;20482;-44
2023/07/14 08:56:03;;;;;;;6.07;1.48;;;17.90;99.90;;;;;;5140699;27;20055;-53
2023/07/14 08:58:34;;;;;;;3.90;1.40;;;17.90;99.90;;;;;;5138178;27;20023;-45
2023/07/14 09:01:05;;;;;;;3.88;1.45;;;17.90;99.90;;;;;;5139555;27;20029;-44
2023/07/14 09:03:46;;;;;;;4.47;1.83;;;18.00;99.90;;;;;;5131253;27;20015;-51
2023/07/14 09:06:17;;;;;;;4.65;1.50;;;18.00;99.90;;;;;;5131103;27;20016;-43
2023/07/14 09:08:44;;;;;;;5.38;1.73;;;18.00;99.90;;;;;;5131105;27;20547;-45
2023/07/14 09:11:35;;;;;;;4.32;1.58;;;18.00;99.90;;;;;;5126057;27;20031;-46
2023/07/14 09:14:03;;;;;;;3.95;1.58;;;18.10;99.90;;;;;;5131080;27;20487;-54
2023/07/14 09:16:34;;;;;;;3.90;1.55;;;18.00;99.90;;;;;;5130963;27;20039;-43
2023/07/14 09:19:02;;;;;;;4.32;1.50;;;18.10;99.90;;;;;;5130829;27;20026;-47
2023/07/14 09:21:50;;;;;;;2.08;1.35;;;18.00;99.90;;;;;;5131178;27;20033;-51
2023/07/14 09:24:52;;;;;;;5.13;1.45;;;17.90;99.90;;;;;;5133699;27;20027;-49
2023/07/14 09:27:25;;;;;;;5.00;1.80;;;18.00;99.90;;;;;;5124794;27;20108;-56
2023/07/14 09:29:52;;;;;;;2.38;1.52;;;18.00;99.90;;;;;;5130702;27;20016;-44
2023/07/14 09:32:49;;;;;;;6.53;1.70;;;17.90;99.90;;;;;;5130885;27;20027;-49
2023/07/14 09:35:18;;;;;;;3.90;1.73;;;18.00;99.90;;;;;;5133996;27;20100;-45
2023/07/14 09:37:59;;;;;;;4.32;1.85;;;18.00;99.90;;;;;;5135224;27;20011;-48
2023/07/14 09:40:30;;;;;;;4.70;1.75;;;18.10;99.90;;;;;;5134839;27;20015;-49
2023/07/14 09:42:59;;;;;;;5.50;1.38;;;18.20;99.90;;;;;;5132337;27;20390;-48
2023/07/14 09:45:30;;;;;;;4.88;1.30;;;18.10;99.90;;;;;;5136974;27;20537;-46
2023/07/14 09:48:17;;;;;;;2.85;1.35;;;18.20;99.90;;;;;;5137900;27;20023;-41
2023/07/14 09:51:13;;;;;;;3.60;2.03;;;18.20;99.90;;;;;;5126813;27;20084;-42
2023/07/14 09:53:55;;;;;;;4.55;1.42;;;18.30;99.90;;;;;;5125976;27;20031;-47
2023/07/14 09:56:25;;;;;;;8.25;1.80;;;18.20;99.90;;;;;;5137752;27;20063;-48
2023/07/14 09:58:54;;;;;;;4.07;1.88;;;18.20;99.90;;;;;;5135131;27;20479;-49
2023/07/14 10:01:20;;;;;;;9.48;2.47;;;18.20;99.90;;;;;;5133632;27;20071;-44
2023/07/14 10:03:58;;;;;;;6.88;1.98;;;18.30;99.90;;;;;;5139143;27;20027;-44
2023/07/14 10:06:27;;;;;;;6.90;1.92;;;18.50;99.90;;;;;;5129312;27;20507;-45
2023/07/14 10:08:59;;;;;;;7.03;2.00;;;18.60;99.90;;;;;;5131313;27;20024;-45
2023/07/14 10:11:26;;;;;;;7.85;2.08;;;18.70;99.90;;;;;;5133404;27;20599;-46
2023/07/14 10:14:07;;;;;;;7.18;1.85;;;18.90;99.90;;;;;;5142533;27;20024;-47
2023/07/14 10:16:41;;;;;;;9.35;2.22;;;19.10;99.90;;;;;;5130139;27;20382;-42
2023/07/14 10:19:31;;;;;;;4.20;1.85;;;19.50;99.90;;;;;;5132669;27;20092;-44
2023/07/14 10:22:04;;;;;;;6.10;1.90;;;19.70;99.90;;;;;;5129981;27;20487;-47
2023/07/14 10:24:31;;;;;;;4.05;2.17;;;19.70;99.90;;;;;;5133587;27;20020;-44
2023/07/14 10:27:11;;;;;;;8.50;2.20;;;19.70;99.90;;;;;;5132856;27;20059;-44
2023/07/14 10:29:50;;;;;;;4.00;1.70;;;20.00;99.90;;;;;;5130339;27;20019;-44
2023/07/14 10:32:36;;;;;;;;;;;20.10;99.90;;;;;;5135210;27;20046;-46
2023/07/14 10:35:05;;;;;;;3.58;1.73;;;20.40;99.90;;;;;;5121052;27;19916;-43
2023/07/14 10:37:37;;;;;;;4.63;2.08;;;20.60;99.90;;;;;;5133211;27;20019;-40
2023/07/14 10:40:11;;;;;;;4.05;1.52;;;20.70;99.90;;;;;;5137673;27;20023;-42
2023/07/14 10:42:43;;;;;;;4.28;1.90;;;20.60;99.90;;;;;;5136989;27;20023;-41
2023/07/14 10:45:13;;;;;;;6.40;2.13;;;20.50;99.90;;;;;;5120665;27;20031;-45
2023/07/14 10:47:58;;;;;;;3.10;1.60;;;20.30;99.90;;;;;;5132800;27;20471;-46
2023/07/14 10:50:36;;;;;;;4.75;2.28;;;20.30;99.90;;;;;;5132738;27;20083;-46
2023/07/14 10:53:18;;;;;;;5.95;1.80;;;20.20;99.90;;;;;;5132965;27;20028;-42
2023/07/14 10:55:47;;;;;;;6.88;2.05;;;19.90;99.90;;;;;;5132710;27;20053;-45
2023/07/14 10:58:35;;;;;;;3.92;1.80;;;19.90;99.90;;;;;;5132548;27;20023;-47
2023/07/14 11:01:05;;;;;;;8.97;2.33;;;19.90;99.90;;;;;;5132493;27;20114;-46
2023/07/14 11:03:39;;;;;;;4.47;2.22;;;19.80;99.90;;;;;;5134610;27;20132;-46
2023/07/14 11:06:22;;;;;;;6.97;2.10;;;19.70;99.90;;;;;;5138290;27;20015;-46
2023/07/14 11:08:52;;;;;;;4.20;1.90;;;19.50;99.90;;;;;;5131001;27;20019;-44
2023/07/14 11:11:29;;;;;;;5.00;2.38;;;19.40;99.90;;;;;;5135551;27;20031;-42
2023/07/14 11:14:17;;;;;;;4.95;1.80;;;19.40;99.90;;;;;;5135425;27;20075;-46
2023/07/14 11:17:03;;;;;;;3.65;1.55;;;19.50;99.90;;;;;;5138082;27;20118;-43
2023/07/14 11:20:03;;;;;;;4.35;1.75;;;19.50;99.90;;;;;;5133975;27;20106;-47
2023/07/14 11:22:54;;;;;;;5.60;2.00;;;19.60;99.90;;;;;;5122227;27;20026;-52
2023/07/14 11:25:24;;;;;;;6.60;2.00;;;19.50;99.90;;;;;;5132428;27;20033;-48
2023/07/14 11:27:58;;;;;;;6.30;2.20;;;19.50;99.90;;;;;;5141176;27;20019;-51
2023/07/14 11:30:48;;;;;;;5.25;1.83;;;19.50;99.90;;;;;;5132925;27;20114;-47
2023/07/14 11:33:35;;;;;;;4.25;2.03;;;19.50;99.90;;;;;;5123014;27;20039;-46
2023/07/14 11:36:31;;;;;;;5.28;2.08;;;19.40;99.90;;;;;;5131576;27;20515;-50
2023/07/14 11:39:18;;;;;;;6.13;2.13;;;19.40;99.90;;;;;;5135451;27;20023;-49
2023/07/14 11:41:45;;;;;;;9.77;2.10;;;19.40;99.90;;;;;;5126774;27;20027;-50
2023/07/14 11:44:17;;;;;;;6.38;1.80;;;19.50;99.90;;;;;;5127804;27;20047;-47
2023/07/14 11:46:44;;;;;;;4.22;2.00;;;19.60;99.90;;;;;;5131520;27;20038;-50
2023/07/14 11:49:34;;;;;;;7.32;2.05;;;19.60;99.90;;;;;;5132224;27;20110;-50
2023/07/14 11:52:11;;;;;;;8.90;1.98;;;19.70;99.90;;;;;;5133685;27;20039;-49
2023/07/14 11:55:02;;;;;;;3.92;2.10;;;19.80;99.90;;;;;;5137186;27;20046;-48
2023/07/14 11:57:30;;;;;;;4.32;1.83;;;20.00;99.90;;;;;;5137992;27;20031;-50
2023/07/14 12:00:17;;;;;;;5.28;2.13;;;20.10;99.90;;;;;;5121137;27;20130;-45
2023/07/14 12:02:57;;;;;;;4.57;1.95;;;20.20;99.90;;;;;;5136843;27;20011;-50
2023/07/14 12:06:15;;;;;;;4.97;2.65;;;20.30;99.90;;;;;;5134880;27;20400;-48
2023/07/14 12:08:42;;;;;;;5.30;2.20;;;20.50;99.90;;;;;;5119930;27;20042;-53
2023/07/14 12:11:28;;;;;;;5.28;1.90;;;21.00;99.90;;;;;;5145468;27;20443;-51
2023/07/14 12:13:57;;;;;;;4.35;2.25;;;21.10;99.90;;;;;;5131822;27;20019;-52
2023/07/14 12:16:44;;;;;;;3.97;2.10;;;21.10;99.90;;;;;;5131846;27;20074;-45
2023/07/14 12:19:22;;;;;;;4.25;1.80;;;21.20;99.90;;;;;;5131780;27;20058;-48
2023/07/14 12:22:08;;;;;;;4.15;2.08;;;21.40;99.90;;;;;;5126924;27;20076;-42
2023/07/14 12:24:47;;;;;;;5.15;2.00;;;21.40;99.90;;;;;;5129702;27;20081;-46
2023/07/14 12:27:34;;;;;;;6.80;2.20;;;21.40;99.90;;;;;;5133536;27;20470;-45
2023/07/14 12:30:18;;;;;;;4.93;2.25;;;21.20;99.90;;;;;;5125577;27;20031;-48
2023/07/14 12:32:44;;;;;;;7.57;2.28;;;21.10;99.90;;;;;;5126772;27;20072;-48
2023/07/14 12:35:16;;;;;;;5.03;1.70;;;20.90;99.90;;;;;;5125862;27;20036;-48
2023/07/14 12:37:41;;;;;;;4.75;1.95;;;20.80;99.90;;;;;;5128311;27;20129;-55
2023/07/14 12:40:15;;;;;;;3.85;1.70;;;20.80;99.90;;;;;;5128871;27;20117;-52
2023/07/14 12:42:43;;;;;;;3.38;1.60;;;20.80;99.90;;;;;;5129275;27;20024;-42
2023/07/14 12:45:12;;;;;;;4.90;2.00;;;20.90;99.90;;;;;;5126345;27;20035;-45
2023/07/14 12:47:43;;;;;;;3.72;1.90;;;20.90;99.90;;;;;;5128252;27;20026;-54
2023/07/14 12:50:18;;;;;;;3.83;1.90;;;20.90;99.90;;;;;;5127371;27;20038;-50
2023/07/14 12:52:44;;;;;;;3.67;1.90;;;20.80;99.90;;;;;;5129000;27;20023;-45
2023/07/14 12:55:24;;;;;;;4.28;1.83;;;20.80;99.90;;;;;;5130515;27;20035;-49
2023/07/14 12:57:50;;;;;;;3.40;1.27;;;20.80;99.90;;;;;;5131256;27;20064;-50
2023/07/14 13:00:37;;;;;;;3.63;1.50;;;20.60;99.90;;;;;;5131325;27;20027;-51
2023/07/14 13:03:10;;;;;;;3.20;1.38;;;20.50;99.90;;;;;;5131208;27;20023;-44
2023/07/14 13:05:38;;;;;;;4.30;1.40;;;20.60;99.90;;;;;;5131151;27;20551;-46
2023/07/14 13:08:07;;;;;;;2.70;1.27;;;20.70;99.90;;;;;;5132936;27;20096;-47